sensor_id;sensor_type;location;lat;lon;timestamp;P1;durP1;ratioP1;P2;durP2;ratioP2
5117;SDS011;2578;51.622;7.046;2022-11-13T00:00:04;5.10;;;3.93;;
5117;SDS011;2578;51.622;7.046;2022-11-13T00:02:31;3.20;;;2.10;;
5117;SDS011;2578;51.622;7.046;2022-11-13T00:04:58;3.10;;;1.93;;
5117;SDS011;2578;51.622;7.046;2022-11-13T00:07:24;3.20;;;2.10;;
5117;SDS011;2578;51.622;7.046;2022-11-13T00:09:50;3.30;;;2.30;;
5117;SDS011;2578;51.622;7.046;2022-11-13T00:12:16;3.40;;;2.57;;
5117;SDS011;2578;51.622;7.046;2022-11-13T00:14:42;4.63;;;2.93;;
5117;SDS011;2578;51.622;7.046;2022-11-13T00:17:08;24.83;;;5.70;;
5117;SDS011;2578;51.622;7.046;2022-11-13T00:19:33;3.93;;;2.83;;
5117;SDS011;2578;51.622;7.046;2022-11-13T00:21:59;4.87;;;4.40;;
5117;SDS011;2578;51.622;7.046;2022-11-13T00:24:25;3.30;;;2.33;;
5117;SDS011;2578;51.622;7.046;2022-11-13T00:26:50;3.13;;;2.00;;
5117;SDS011;2578;51.622;7.046;2022-11-13T00:29:16;3.20;;;2.10;;
5117;SDS011;2578;51.622;7.046;2022-11-13T00:31:42;4.23;;;2.77;;
5117;SDS011;2578;51.622;7.046;2022-11-13T00:34:08;3.13;;;2.10;;
5117;SDS011;2578;51.622;7.046;2022-11-13T00:36:34;3.20;;;2.10;;
5117;SDS011;2578;51.622;7.046;2022-11-13T00:39:00;3.20;;;2.10;;
5117;SDS011;2578;51.622;7.046;2022-11-13T00:41:25;3.30;;;2.40;;
5117;SDS011;2578;51.622;7.046;2022-11-13T00:43:51;3.30;;;2.40;;
5117;SDS011;2578;51.622;7.046;2022-11-13T00:46:17;3.50;;;2.77;;
5117;SDS011;2578;51.622;7.046;2022-11-13T00:48:43;8.07;;;5.10;;
5117;SDS011;2578;51.622;7.046;2022-11-13T00:51:09;3.20;;;2.20;;
5117;SDS011;2578;51.622;7.046;2022-11-13T00:53:34;3.20;;;2.20;;
5117;SDS011;2578;51.622;7.046;2022-11-13T00:56:00;3.20;;;2.20;;
5117;SDS011;2578;51.622;7.046;2022-11-13T00:58:25;3.20;;;2.10;;
5117;SDS011;2578;51.622;7.046;2022-11-13T01:00:51;3.83;;;3.30;;
5117;SDS011;2578;51.622;7.046;2022-11-13T01:03:17;3.20;;;2.20;;
5117;SDS011;2578;51.622;7.046;2022-11-13T01:05:43;3.23;;;2.30;;
5117;SDS011;2578;51.622;7.046;2022-11-13T01:08:11;3.20;;;2.23;;
5117;SDS011;2578;51.622;7.046;2022-11-13T01:10:39;3.37;;;2.50;;
5117;SDS011;2578;51.622;7.046;2022-11-13T01:13:09;3.30;;;2.30;;
5117;SDS011;2578;51.622;7.046;2022-11-13T01:15:39;3.30;;;2.53;;
5117;SDS011;2578;51.622;7.046;2022-11-13T01:18:05;3.20;;;2.10;;
5117;SDS011;2578;51.622;7.046;2022-11-13T01:20:31;5.30;;;4.63;;
5117;SDS011;2578;51.622;7.046;2022-11-13T01:22:58;3.07;;;1.80;;
5117;SDS011;2578;51.622;7.046;2022-11-13T01:25:23;4.03;;;2.80;;
5117;SDS011;2578;51.622;7.046;2022-11-13T01:27:49;3.13;;;1.80;;
5117;SDS011;2578;51.622;7.046;2022-11-13T01:30:15;4.53;;;3.40;;
5117;SDS011;2578;51.622;7.046;2022-11-13T01:32:41;3.10;;;1.90;;
5117;SDS011;2578;51.622;7.046;2022-11-13T01:35:07;3.10;;;1.80;;
5117;SDS011;2578;51.622;7.046;2022-11-13T01:37:32;3.13;;;2.00;;
5117;SDS011;2578;51.622;7.046;2022-11-13T01:39:58;3.10;;;1.90;;
5117;SDS011;2578;51.622;7.046;2022-11-13T01:42:23;3.10;;;1.90;;
5117;SDS011;2578;51.622;7.046;2022-11-13T01:44:51;3.17;;;2.10;;
5117;SDS011;2578;51.622;7.046;2022-11-13T01:47:21;3.23;;;2.30;;
5117;SDS011;2578;51.622;7.046;2022-11-13T01:49:48;3.17;;;2.10;;
5117;SDS011;2578;51.622;7.046;2022-11-13T01:52:20;5.10;;;3.53;;
5117;SDS011;2578;51.622;7.046;2022-11-13T01:55:05;3.37;;;2.50;;
5117;SDS011;2578;51.622;7.046;2022-11-13T01:57:35;3.20;;;2.30;;
5117;SDS011;2578;51.622;7.046;2022-11-13T02:00:02;3.30;;;2.30;;
5117;SDS011;2578;51.622;7.046;2022-11-13T02:02:31;3.50;;;2.77;;
5117;SDS011;2578;51.622;7.046;2022-11-13T02:04:57;3.30;;;2.40;;
5117;SDS011;2578;51.622;7.046;2022-11-13T02:07:22;3.27;;;2.30;;
5117;SDS011;2578;51.622;7.046;2022-11-13T02:09:49;3.97;;;2.83;;
5117;SDS011;2578;51.622;7.046;2022-11-13T02:12:37;4.70;;;3.23;;
5117;SDS011;2578;51.622;7.046;2022-11-13T02:15:10;3.30;;;2.30;;
5117;SDS011;2578;51.622;7.046;2022-11-13T02:17:39;3.90;;;2.97;;
5117;SDS011;2578;51.622;7.046;2022-11-13T02:20:09;5.30;;;3.70;;
5117;SDS011;2578;51.622;7.046;2022-11-13T02:25:19;3.20;;;2.10;;
5117;SDS011;2578;51.622;7.046;2022-11-13T02:27:47;3.20;;;2.10;;
5117;SDS011;2578;51.622;7.046;2022-11-13T02:30:15;3.93;;;3.50;;
5117;SDS011;2578;51.622;7.046;2022-11-13T02:32:47;3.40;;;2.70;;
5117;SDS011;2578;51.622;7.046;2022-11-13T02:35:15;3.20;;;2.20;;
5117;SDS011;2578;51.622;7.046;2022-11-13T02:37:44;3.20;;;2.20;;
5117;SDS011;2578;51.622;7.046;2022-11-13T02:40:09;3.57;;;2.40;;
5117;SDS011;2578;51.622;7.046;2022-11-13T02:42:35;3.50;;;2.40;;
5117;SDS011;2578;51.622;7.046;2022-11-13T02:45:01;3.53;;;2.73;;
5117;SDS011;2578;51.622;7.046;2022-11-13T02:47:27;3.30;;;2.40;;
5117;SDS011;2578;51.622;7.046;2022-11-13T02:49:53;3.20;;;2.17;;
5117;SDS011;2578;51.622;7.046;2022-11-13T02:52:18;3.20;;;2.10;;
5117;SDS011;2578;51.622;7.046;2022-11-13T02:54:44;3.20;;;2.23;;
5117;SDS011;2578;51.622;7.046;2022-11-13T02:57:10;3.20;;;2.20;;
5117;SDS011;2578;51.622;7.046;2022-11-13T02:59:35;3.20;;;2.20;;
5117;SDS011;2578;51.622;7.046;2022-11-13T03:02:01;3.20;;;2.10;;
5117;SDS011;2578;51.622;7.046;2022-11-13T03:04:26;3.50;;;2.67;;
5117;SDS011;2578;51.622;7.046;2022-11-13T03:06:52;3.37;;;2.40;;
5117;SDS011;2578;51.622;7.046;2022-11-13T03:09:17;4.13;;;3.73;;
5117;SDS011;2578;51.622;7.046;2022-11-13T03:11:43;4.93;;;4.33;;
5117;SDS011;2578;51.622;7.046;2022-11-13T03:14:09;3.30;;;2.60;;
5117;SDS011;2578;51.622;7.046;2022-11-13T03:16:35;3.30;;;2.30;;
5117;SDS011;2578;51.622;7.046;2022-11-13T03:19:01;3.30;;;2.40;;
5117;SDS011;2578;51.622;7.046;2022-11-13T03:21:27;4.27;;;3.13;;
5117;SDS011;2578;51.622;7.046;2022-11-13T03:23:54;3.40;;;2.70;;
5117;SDS011;2578;51.622;7.046;2022-11-13T03:26:20;3.70;;;3.20;;
5117;SDS011;2578;51.622;7.046;2022-11-13T03:28:45;3.30;;;2.40;;
5117;SDS011;2578;51.622;7.046;2022-11-13T03:31:11;3.30;;;2.33;;
5117;SDS011;2578;51.622;7.046;2022-11-13T03:33:37;3.30;;;2.30;;
5117;SDS011;2578;51.622;7.046;2022-11-13T03:36:03;3.40;;;2.50;;
5117;SDS011;2578;51.622;7.046;2022-11-13T03:38:29;7.10;;;5.17;;
5117;SDS011;2578;51.622;7.046;2022-11-13T03:40:55;3.33;;;2.47;;
5117;SDS011;2578;51.622;7.046;2022-11-13T03:43:20;3.33;;;2.43;;
5117;SDS011;2578;51.622;7.046;2022-11-13T03:45:46;3.50;;;2.47;;
5117;SDS011;2578;51.622;7.046;2022-11-13T03:48:13;3.33;;;2.50;;
5117;SDS011;2578;51.622;7.046;2022-11-13T03:50:41;3.27;;;2.30;;
5117;SDS011;2578;51.622;7.046;2022-11-13T03:53:09;3.43;;;2.70;;
5117;SDS011;2578;51.622;7.046;2022-11-13T03:55:35;3.30;;;2.30;;
5117;SDS011;2578;51.622;7.046;2022-11-13T03:58:01;3.37;;;2.50;;
5117;SDS011;2578;51.622;7.046;2022-11-13T04:00:26;3.40;;;2.50;;
5117;SDS011;2578;51.622;7.046;2022-11-13T04:02:52;3.60;;;3.20;;
5117;SDS011;2578;51.622;7.046;2022-11-13T04:05:18;3.40;;;2.80;;
5117;SDS011;2578;51.622;7.046;2022-11-13T04:07:43;9.73;;;6.50;;
5117;SDS011;2578;51.622;7.046;2022-11-13T04:10:09;3.30;;;2.50;;
5117;SDS011;2578;51.622;7.046;2022-11-13T04:12:34;3.47;;;2.80;;
5117;SDS011;2578;51.622;7.046;2022-11-13T04:15:00;3.43;;;2.80;;
5117;SDS011;2578;51.622;7.046;2022-11-13T04:17:25;3.60;;;3.10;;
5117;SDS011;2578;51.622;7.046;2022-11-13T04:19:51;3.40;;;2.80;;
5117;SDS011;2578;51.622;7.046;2022-11-13T04:22:16;4.33;;;3.93;;
5117;SDS011;2578;51.622;7.046;2022-11-13T04:24:42;3.30;;;2.50;;
5117;SDS011;2578;51.622;7.046;2022-11-13T04:27:07;3.40;;;2.40;;
5117;SDS011;2578;51.622;7.046;2022-11-13T04:29:33;6.13;;;5.53;;
5117;SDS011;2578;51.622;7.046;2022-11-13T04:31:59;3.50;;;2.53;;
5117;SDS011;2578;51.622;7.046;2022-11-13T04:34:24;11.03;;;4.70;;
5117;SDS011;2578;51.622;7.046;2022-11-13T04:36:50;3.33;;;2.50;;
5117;SDS011;2578;51.622;7.046;2022-11-13T04:39:16;3.30;;;2.30;;
5117;SDS011;2578;51.622;7.046;2022-11-13T04:41:41;3.40;;;2.60;;
5117;SDS011;2578;51.622;7.046;2022-11-13T04:44:25;3.30;;;2.30;;
5117;SDS011;2578;51.622;7.046;2022-11-13T04:46:51;3.30;;;2.20;;
5117;SDS011;2578;51.622;7.046;2022-11-13T04:49:16;3.20;;;2.00;;
5117;SDS011;2578;51.622;7.046;2022-11-13T04:51:42;4.23;;;2.87;;
5117;SDS011;2578;51.622;7.046;2022-11-13T04:54:08;3.10;;;1.80;;
5117;SDS011;2578;51.622;7.046;2022-11-13T04:56:33;3.63;;;2.67;;
5117;SDS011;2578;51.622;7.046;2022-11-13T04:58:59;3.10;;;1.90;;
5117;SDS011;2578;51.622;7.046;2022-11-13T05:01:24;3.27;;;2.20;;
5117;SDS011;2578;51.622;7.046;2022-11-13T05:03:50;3.20;;;2.10;;
5117;SDS011;2578;51.622;7.046;2022-11-13T05:06:15;4.93;;;4.53;;
5117;SDS011;2578;51.622;7.046;2022-11-13T05:08:41;3.30;;;2.30;;
5117;SDS011;2578;51.622;7.046;2022-11-13T05:11:07;3.20;;;2.20;;
5117;SDS011;2578;51.622;7.046;2022-11-13T05:13:33;3.33;;;2.60;;
5117;SDS011;2578;51.622;7.046;2022-11-13T05:16:00;5.67;;;2.80;;
5117;SDS011;2578;51.622;7.046;2022-11-13T05:18:28;3.30;;;2.30;;
5117;SDS011;2578;51.622;7.046;2022-11-13T05:20:54;3.80;;;2.70;;
5117;SDS011;2578;51.622;7.046;2022-11-13T05:23:20;4.53;;;4.00;;
5117;SDS011;2578;51.622;7.046;2022-11-13T05:25:45;3.40;;;2.60;;
5117;SDS011;2578;51.622;7.046;2022-11-13T05:28:11;3.30;;;2.50;;
5117;SDS011;2578;51.622;7.046;2022-11-13T05:30:36;3.40;;;2.60;;
5117;SDS011;2578;51.622;7.046;2022-11-13T05:33:02;3.30;;;2.40;;
5117;SDS011;2578;51.622;7.046;2022-11-13T05:35:27;3.30;;;2.30;;
5117;SDS011;2578;51.622;7.046;2022-11-13T05:37:53;3.30;;;2.30;;
5117;SDS011;2578;51.622;7.046;2022-11-13T05:40:18;5.17;;;4.77;;
5117;SDS011;2578;51.622;7.046;2022-11-13T05:42:44;3.30;;;2.40;;
5117;SDS011;2578;51.622;7.046;2022-11-13T05:45:10;3.30;;;2.40;;
5117;SDS011;2578;51.622;7.046;2022-11-13T05:47:35;4.47;;;3.27;;
5117;SDS011;2578;51.622;7.046;2022-11-13T05:50:01;3.30;;;2.60;;
5117;SDS011;2578;51.622;7.046;2022-11-13T05:52:26;3.30;;;2.50;;
5117;SDS011;2578;51.622;7.046;2022-11-13T05:54:52;3.30;;;2.60;;
5117;SDS011;2578;51.622;7.046;2022-11-13T05:57:17;3.40;;;2.70;;
5117;SDS011;2578;51.622;7.046;2022-11-13T05:59:43;3.30;;;2.40;;
5117;SDS011;2578;51.622;7.046;2022-11-13T06:02:09;3.30;;;2.60;;
5117;SDS011;2578;51.622;7.046;2022-11-13T06:04:34;3.40;;;2.70;;
5117;SDS011;2578;51.622;7.046;2022-11-13T06:07:00;3.37;;;2.70;;
5117;SDS011;2578;51.622;7.046;2022-11-13T06:09:25;3.40;;;2.73;;
5117;SDS011;2578;51.622;7.046;2022-11-13T06:11:51;18.17;;;16.37;;
5117;SDS011;2578;51.622;7.046;2022-11-13T06:14:16;3.30;;;2.50;;
5117;SDS011;2578;51.622;7.046;2022-11-13T06:16:45;3.33;;;2.50;;
5117;SDS011;2578;51.622;7.046;2022-11-13T06:19:20;3.30;;;2.47;;
5117;SDS011;2578;51.622;7.046;2022-11-13T06:21:45;3.30;;;2.50;;
5117;SDS011;2578;51.622;7.046;2022-11-13T06:24:11;3.30;;;2.60;;
5117;SDS011;2578;51.622;7.046;2022-11-13T06:26:37;3.40;;;2.70;;
5117;SDS011;2578;51.622;7.046;2022-11-13T06:29:03;3.40;;;2.60;;
5117;SDS011;2578;51.622;7.046;2022-11-13T06:31:31;3.87;;;3.43;;
5117;SDS011;2578;51.622;7.046;2022-11-13T06:33:58;3.40;;;2.70;;
5117;SDS011;2578;51.622;7.046;2022-11-13T06:36:28;3.30;;;2.40;;
5117;SDS011;2578;51.622;7.046;2022-11-13T06:38:55;3.80;;;3.40;;
5117;SDS011;2578;51.622;7.046;2022-11-13T06:41:23;3.50;;;2.97;;
5117;SDS011;2578;51.622;7.046;2022-11-13T06:43:51;4.97;;;4.47;;
5117;SDS011;2578;51.622;7.046;2022-11-13T06:46:17;3.50;;;2.90;;
5117;SDS011;2578;51.622;7.046;2022-11-13T06:48:45;3.40;;;2.80;;
5117;SDS011;2578;51.622;7.046;2022-11-13T06:51:13;3.50;;;2.90;;
5117;SDS011;2578;51.622;7.046;2022-11-13T06:53:41;3.40;;;2.80;;
5117;SDS011;2578;51.622;7.046;2022-11-13T06:56:07;3.30;;;2.50;;
5117;SDS011;2578;51.622;7.046;2022-11-13T06:58:33;3.40;;;2.67;;
5117;SDS011;2578;51.622;7.046;2022-11-13T07:01:08;3.50;;;3.00;;
5117;SDS011;2578;51.622;7.046;2022-11-13T07:03:36;4.90;;;3.67;;
5117;SDS011;2578;51.622;7.046;2022-11-13T07:06:03;3.40;;;2.60;;
5117;SDS011;2578;51.622;7.046;2022-11-13T07:08:30;3.50;;;2.80;;
5117;SDS011;2578;51.622;7.046;2022-11-13T07:10:57;3.40;;;2.80;;
5117;SDS011;2578;51.622;7.046;2022-11-13T07:13:24;3.33;;;2.60;;
5117;SDS011;2578;51.622;7.046;2022-11-13T07:15:50;3.50;;;2.60;;
5117;SDS011;2578;51.622;7.046;2022-11-13T07:18:16;4.43;;;3.47;;
5117;SDS011;2578;51.622;7.046;2022-11-13T07:20:42;3.40;;;2.60;;
5117;SDS011;2578;51.622;7.046;2022-11-13T07:23:08;3.80;;;3.33;;
5117;SDS011;2578;51.622;7.046;2022-11-13T07:25:34;3.30;;;2.60;;
5117;SDS011;2578;51.622;7.046;2022-11-13T07:28:00;3.40;;;2.60;;
5117;SDS011;2578;51.622;7.046;2022-11-13T07:30:26;3.40;;;2.60;;
5117;SDS011;2578;51.622;7.046;2022-11-13T07:32:52;3.40;;;2.60;;
5117;SDS011;2578;51.622;7.046;2022-11-13T07:35:18;4.27;;;3.87;;
5117;SDS011;2578;51.622;7.046;2022-11-13T07:37:44;6.50;;;2.97;;
5117;SDS011;2578;51.622;7.046;2022-11-13T07:40:10;3.50;;;2.50;;
5117;SDS011;2578;51.622;7.046;2022-11-13T07:42:36;3.13;;;2.00;;
5117;SDS011;2578;51.622;7.046;2022-11-13T07:45:02;3.93;;;3.40;;
5117;SDS011;2578;51.622;7.046;2022-11-13T07:47:28;3.13;;;1.90;;
5117;SDS011;2578;51.622;7.046;2022-11-13T07:49:54;3.23;;;2.00;;
5117;SDS011;2578;51.622;7.046;2022-11-13T07:52:20;4.10;;;3.30;;
5117;SDS011;2578;51.622;7.046;2022-11-13T07:54:45;3.23;;;2.10;;
5117;SDS011;2578;51.622;7.046;2022-11-13T07:57:12;5.00;;;3.90;;
5117;SDS011;2578;51.622;7.046;2022-11-13T07:59:37;3.30;;;2.40;;
5117;SDS011;2578;51.622;7.046;2022-11-13T08:02:03;3.30;;;2.40;;
5117;SDS011;2578;51.622;7.046;2022-11-13T08:04:29;3.40;;;2.60;;
5117;SDS011;2578;51.622;7.046;2022-11-13T08:06:54;3.40;;;2.83;;
5117;SDS011;2578;51.622;7.046;2022-11-13T08:09:20;3.50;;;3.10;;
5117;SDS011;2578;51.622;7.046;2022-11-13T08:11:46;13.50;;;6.93;;
5117;SDS011;2578;51.622;7.046;2022-11-13T08:14:11;3.40;;;2.80;;
5117;SDS011;2578;51.622;7.046;2022-11-13T08:16:37;6.50;;;5.87;;
5117;SDS011;2578;51.622;7.046;2022-11-13T08:19:03;3.30;;;2.30;;
5117;SDS011;2578;51.622;7.046;2022-11-13T08:21:28;3.70;;;2.70;;
5117;SDS011;2578;51.622;7.046;2022-11-13T08:23:54;10.27;;;4.67;;
5117;SDS011;2578;51.622;7.046;2022-11-13T08:26:20;4.20;;;3.80;;
5117;SDS011;2578;51.622;7.046;2022-11-13T08:28:46;4.17;;;3.77;;
5117;SDS011;2578;51.622;7.046;2022-11-13T08:31:13;3.60;;;3.10;;
5117;SDS011;2578;51.622;7.046;2022-11-13T08:33:40;4.80;;;3.73;;
5117;SDS011;2578;51.622;7.046;2022-11-13T08:36:07;6.53;;;3.97;;
5117;SDS011;2578;51.622;7.046;2022-11-13T08:38:34;3.70;;;3.30;;
5117;SDS011;2578;51.622;7.046;2022-11-13T08:41:02;4.90;;;4.50;;
5117;SDS011;2578;51.622;7.046;2022-11-13T08:43:29;5.50;;;5.10;;
5117;SDS011;2578;51.622;7.046;2022-11-13T08:45:55;7.30;;;6.80;;
5117;SDS011;2578;51.622;7.046;2022-11-13T08:48:21;8.70;;;8.10;;
5117;SDS011;2578;51.622;7.046;2022-11-13T08:50:51;12.60;;;11.33;;
5117;SDS011;2578;51.622;7.046;2022-11-13T08:53:17;18.03;;;16.47;;
5117;SDS011;2578;51.622;7.046;2022-11-13T08:55:43;20.80;;;19.40;;
5117;SDS011;2578;51.622;7.046;2022-11-13T08:58:09;26.20;;;24.30;;
5117;SDS011;2578;51.622;7.046;2022-11-13T09:00:34;35.73;;;33.03;;
5117;SDS011;2578;51.622;7.046;2022-11-13T09:03:00;36.40;;;33.50;;
5117;SDS011;2578;51.622;7.046;2022-11-13T09:05:26;37.80;;;34.80;;
5117;SDS011;2578;51.622;7.046;2022-11-13T09:07:55;26.93;;;24.73;;
5117;SDS011;2578;51.622;7.046;2022-11-13T09:10:22;25.70;;;23.60;;
5117;SDS011;2578;51.622;7.046;2022-11-13T09:12:48;26.57;;;24.37;;
5117;SDS011;2578;51.622;7.046;2022-11-13T09:15:19;28.07;;;25.77;;
5117;SDS011;2578;51.622;7.046;2022-11-13T09:17:44;27.43;;;25.13;;
5117;SDS011;2578;51.622;7.046;2022-11-13T09:20:10;30.17;;;27.70;;
5117;SDS011;2578;51.622;7.046;2022-11-13T09:22:36;29.43;;;27.03;;
5117;SDS011;2578;51.622;7.046;2022-11-13T09:25:02;30.40;;;27.90;;
5117;SDS011;2578;51.622;7.046;2022-11-13T09:27:27;31.07;;;28.47;;
5117;SDS011;2578;51.622;7.046;2022-11-13T09:29:53;33.03;;;30.33;;
5117;SDS011;2578;51.622;7.046;2022-11-13T09:32:19;32.57;;;29.87;;
5117;SDS011;2578;51.622;7.046;2022-11-13T09:34:50;33.10;;;30.40;;
5117;SDS011;2578;51.622;7.046;2022-11-13T09:37:16;32.63;;;29.93;;
5117;SDS011;2578;51.622;7.046;2022-11-13T09:39:41;31.60;;;29.00;;
5117;SDS011;2578;51.622;7.046;2022-11-13T09:42:11;36.23;;;33.23;;
5117;SDS011;2578;51.622;7.046;2022-11-13T09:44:42;32.83;;;30.13;;
5117;SDS011;2578;51.622;7.046;2022-11-13T09:47:47;32.87;;;30.27;;
5117;SDS011;2578;51.622;7.046;2022-11-13T09:50:16;29.90;;;27.50;;
5117;SDS011;2578;51.622;7.046;2022-11-13T09:52:48;30.30;;;27.90;;
5117;SDS011;2578;51.622;7.046;2022-11-13T09:55:17;29.70;;;27.30;;
5117;SDS011;2578;51.622;7.046;2022-11-13T09:57:50;31.10;;;28.53;;
5117;SDS011;2578;51.622;7.046;2022-11-13T10:00:23;29.20;;;26.90;;
5117;SDS011;2578;51.622;7.046;2022-11-13T10:05:58;31.50;;;29.00;;
5117;SDS011;2578;51.622;7.046;2022-11-13T10:08:50;33.43;;;30.00;;
5117;SDS011;2578;51.622;7.046;2022-11-13T10:13:51;32.30;;;29.80;;
5117;SDS011;2578;51.622;7.046;2022-11-13T10:16:29;30.47;;;28.07;;
5117;SDS011;2578;51.622;7.046;2022-11-13T10:19:04;32.50;;;30.10;;
5117;SDS011;2578;51.622;7.046;2022-11-13T10:21:51;30.27;;;27.87;;
5117;SDS011;2578;51.622;7.046;2022-11-13T10:24:26;32.40;;;29.80;;
5117;SDS011;2578;51.622;7.046;2022-11-13T10:26:57;32.47;;;30.07;;
5117;SDS011;2578;51.622;7.046;2022-11-13T10:29:24;30.30;;;27.90;;
5117;SDS011;2578;51.622;7.046;2022-11-13T10:31:52;31.50;;;29.03;;
5117;SDS011;2578;51.622;7.046;2022-11-13T10:34:18;30.40;;;27.90;;
5117;SDS011;2578;51.622;7.046;2022-11-13T10:39:40;31.60;;;29.10;;
5117;SDS011;2578;51.622;7.046;2022-11-13T10:45:12;31.07;;;28.57;;
5117;SDS011;2578;51.622;7.046;2022-11-13T10:47:50;29.90;;;27.40;;
5117;SDS011;2578;51.622;7.046;2022-11-13T10:50:23;32.67;;;30.07;;
5117;SDS011;2578;51.622;7.046;2022-11-13T10:52:50;31.30;;;28.80;;
5117;SDS011;2578;51.622;7.046;2022-11-13T10:58:03;32.63;;;30.03;;
5117;SDS011;2578;51.622;7.046;2022-11-13T11:00:36;32.17;;;29.67;;
5117;SDS011;2578;51.622;7.046;2022-11-13T11:03:12;29.47;;;27.07;;
5117;SDS011;2578;51.622;7.046;2022-11-13T11:05:49;31.13;;;28.30;;
5117;SDS011;2578;51.622;7.046;2022-11-13T11:08:29;28.67;;;26.27;;
5117;SDS011;2578;51.622;7.046;2022-11-13T11:10:58;27.53;;;25.13;;
5117;SDS011;2578;51.622;7.046;2022-11-13T11:13:44;27.73;;;25.33;;
5117;SDS011;2578;51.622;7.046;2022-11-13T11:16:13;27.30;;;24.90;;
5117;SDS011;2578;51.622;7.046;2022-11-13T11:18:45;28.03;;;25.53;;
5117;SDS011;2578;51.622;7.046;2022-11-13T11:21:27;27.90;;;25.30;;
5117;SDS011;2578;51.622;7.046;2022-11-13T11:23:59;27.80;;;25.30;;
5117;SDS011;2578;51.622;7.046;2022-11-13T11:26:40;28.20;;;25.67;;
5117;SDS011;2578;51.622;7.046;2022-11-13T11:29:25;27.90;;;25.40;;
5117;SDS011;2578;51.622;7.046;2022-11-13T11:32:05;28.07;;;25.50;;
5117;SDS011;2578;51.622;7.046;2022-11-13T11:34:43;28.77;;;26.27;;
5117;SDS011;2578;51.622;7.046;2022-11-13T11:37:30;29.17;;;26.57;;
5117;SDS011;2578;51.622;7.046;2022-11-13T11:40:12;32.57;;;29.67;;
5117;SDS011;2578;51.622;7.046;2022-11-13T11:42:40;33.40;;;30.50;;
5117;SDS011;2578;51.622;7.046;2022-11-13T11:47:40;33.20;;;30.23;;
5117;SDS011;2578;51.622;7.046;2022-11-13T11:50:16;34.33;;;31.43;;
5117;SDS011;2578;51.622;7.046;2022-11-13T11:55:33;29.40;;;26.90;;
5117;SDS011;2578;51.622;7.046;2022-11-13T12:18:26;30.40;;;27.90;;
5117;SDS011;2578;51.622;7.046;2022-11-13T12:23:47;28.97;;;26.57;;
5117;SDS011;2578;51.622;7.046;2022-11-13T12:35:26;33.10;;;30.40;;
5117;SDS011;2578;51.622;7.046;2022-11-13T12:37:58;31.17;;;28.57;;
5117;SDS011;2578;51.622;7.046;2022-11-13T12:45:55;32.40;;;29.60;;
5117;SDS011;2578;51.622;7.046;2022-11-13T12:48:34;32.90;;;30.10;;
5117;SDS011;2578;51.622;7.046;2022-11-13T12:51:08;32.03;;;29.33;;
5117;SDS011;2578;51.622;7.046;2022-11-13T12:53:54;31.50;;;28.80;;
5117;SDS011;2578;51.622;7.046;2022-11-13T13:01:44;30.27;;;27.77;;
5117;SDS011;2578;51.622;7.046;2022-11-13T13:07:54;30.77;;;28.30;;
5117;SDS011;2578;51.622;7.046;2022-11-13T13:13:29;32.50;;;29.80;;
5117;SDS011;2578;51.622;7.046;2022-11-13T13:16:06;30.60;;;28.10;;
5117;SDS011;2578;51.622;7.046;2022-11-13T13:18:35;30.60;;;28.10;;
5117;SDS011;2578;51.622;7.046;2022-11-13T13:23:34;30.60;;;28.10;;
5117;SDS011;2578;51.622;7.046;2022-11-13T13:26:02;30.80;;;28.20;;
5117;SDS011;2578;51.622;7.046;2022-11-13T13:28:30;30.47;;;27.87;;
5117;SDS011;2578;51.622;7.046;2022-11-13T13:31:03;30.90;;;28.30;;
5117;SDS011;2578;51.622;7.046;2022-11-13T13:33:43;31.47;;;28.87;;
5117;SDS011;2578;51.622;7.046;2022-11-13T13:47:16;31.00;;;28.30;;
5117;SDS011;2578;51.622;7.046;2022-11-13T13:49:48;30.03;;;27.43;;
5117;SDS011;2578;51.622;7.046;2022-11-13T13:52:15;29.60;;;27.10;;
5117;SDS011;2578;51.622;7.046;2022-11-13T13:54:41;28.60;;;26.20;;
5117;SDS011;2578;51.622;7.046;2022-11-13T13:57:12;28.80;;;26.40;;
5117;SDS011;2578;51.622;7.046;2022-11-13T13:59:39;29.23;;;26.73;;
5117;SDS011;2578;51.622;7.046;2022-11-13T14:02:13;30.93;;;28.20;;
5117;SDS011;2578;51.622;7.046;2022-11-13T14:04:44;29.20;;;26.70;;
5117;SDS011;2578;51.622;7.046;2022-11-13T14:12:40;27.80;;;25.50;;
5117;SDS011;2578;51.622;7.046;2022-11-13T14:15:20;27.30;;;25.00;;
5117;SDS011;2578;51.622;7.046;2022-11-13T14:17:48;27.67;;;25.37;;
5117;SDS011;2578;51.622;7.046;2022-11-13T14:20:14;26.90;;;24.60;;
5117;SDS011;2578;51.622;7.046;2022-11-13T14:22:41;26.43;;;24.23;;
5117;SDS011;2578;51.622;7.046;2022-11-13T14:25:15;26.70;;;24.50;;
5117;SDS011;2578;51.622;7.046;2022-11-13T14:27:46;26.90;;;24.70;;
5117;SDS011;2578;51.622;7.046;2022-11-13T14:32:48;25.70;;;23.60;;
5117;SDS011;2578;51.622;7.046;2022-11-13T14:35:19;25.53;;;23.23;;
5117;SDS011;2578;51.622;7.046;2022-11-13T14:37:46;25.30;;;23.20;;
5117;SDS011;2578;51.622;7.046;2022-11-13T14:42:55;25.93;;;23.83;;
5117;SDS011;2578;51.622;7.046;2022-11-13T14:45:24;25.20;;;23.10;;
5117;SDS011;2578;51.622;7.046;2022-11-13T14:47:59;26.60;;;24.50;;
5117;SDS011;2578;51.622;7.046;2022-11-13T14:50:30;25.90;;;23.80;;
5117;SDS011;2578;51.622;7.046;2022-11-13T14:53:00;25.60;;;23.50;;
5117;SDS011;2578;51.622;7.046;2022-11-13T14:55:30;26.90;;;24.70;;
5117;SDS011;2578;51.622;7.046;2022-11-13T14:58:13;26.60;;;24.43;;
5117;SDS011;2578;51.622;7.046;2022-11-13T15:00:49;26.50;;;24.30;;
5117;SDS011;2578;51.622;7.046;2022-11-13T15:03:15;25.73;;;23.63;;
5117;SDS011;2578;51.622;7.046;2022-11-13T15:05:40;26.80;;;24.60;;
5117;SDS011;2578;51.622;7.046;2022-11-13T15:08:10;25.70;;;23.60;;
5117;SDS011;2578;51.622;7.046;2022-11-13T15:10:37;25.50;;;23.40;;
5117;SDS011;2578;51.622;7.046;2022-11-13T15:13:07;25.20;;;23.20;;
5117;SDS011;2578;51.622;7.046;2022-11-13T15:15:43;25.40;;;23.30;;
5117;SDS011;2578;51.622;7.046;2022-11-13T15:18:13;23.97;;;22.00;;
5117;SDS011;2578;51.622;7.046;2022-11-13T15:20:42;23.60;;;21.70;;
5117;SDS011;2578;51.622;7.046;2022-11-13T15:23:11;22.70;;;20.90;;
5117;SDS011;2578;51.622;7.046;2022-11-13T15:25:39;22.57;;;20.77;;
5117;SDS011;2578;51.622;7.046;2022-11-13T15:28:05;22.70;;;20.90;;
5117;SDS011;2578;51.622;7.046;2022-11-13T15:30:30;22.20;;;20.40;;
5117;SDS011;2578;51.622;7.046;2022-11-13T15:32:56;21.80;;;20.10;;
5117;SDS011;2578;51.622;7.046;2022-11-13T15:35:23;21.13;;;19.43;;
5117;SDS011;2578;51.622;7.046;2022-11-13T15:37:49;21.23;;;19.53;;
5117;SDS011;2578;51.622;7.046;2022-11-13T15:40:15;20.40;;;18.80;;
5117;SDS011;2578;51.622;7.046;2022-11-13T15:42:42;19.70;;;18.20;;
5117;SDS011;2578;51.622;7.046;2022-11-13T15:45:17;18.43;;;17.03;;
5117;SDS011;2578;51.622;7.046;2022-11-13T15:47:42;17.30;;;16.10;;
5117;SDS011;2578;51.622;7.046;2022-11-13T15:50:08;15.80;;;14.70;;
5117;SDS011;2578;51.622;7.046;2022-11-13T15:52:35;15.40;;;14.40;;
5117;SDS011;2578;51.622;7.046;2022-11-13T15:55:03;15.17;;;14.17;;
5117;SDS011;2578;51.622;7.046;2022-11-13T15:57:39;15.00;;;14.00;;
5117;SDS011;2578;51.622;7.046;2022-11-13T16:00:08;14.20;;;13.30;;
5117;SDS011;2578;51.622;7.046;2022-11-13T16:02:45;14.07;;;13.17;;
5117;SDS011;2578;51.622;7.046;2022-11-13T16:05:14;13.40;;;12.60;;
5117;SDS011;2578;51.622;7.046;2022-11-13T16:07:40;12.70;;;11.90;;
5117;SDS011;2578;51.622;7.046;2022-11-13T16:10:07;11.00;;;10.30;;
5117;SDS011;2578;51.622;7.046;2022-11-13T16:12:34;10.87;;;10.17;;
5117;SDS011;2578;51.622;7.046;2022-11-13T16:15:00;9.60;;;9.00;;
5117;SDS011;2578;51.622;7.046;2022-11-13T16:17:26;9.10;;;8.50;;
5117;SDS011;2578;51.622;7.046;2022-11-13T16:19:52;9.13;;;8.53;;
5117;SDS011;2578;51.622;7.046;2022-11-13T16:24:45;7.90;;;7.40;;
5117;SDS011;2578;51.622;7.046;2022-11-13T16:27:16;7.20;;;6.70;;
5117;SDS011;2578;51.622;7.046;2022-11-13T16:29:53;7.30;;;6.80;;
5117;SDS011;2578;51.622;7.046;2022-11-13T16:32:19;5.97;;;5.57;;
5117;SDS011;2578;51.622;7.046;2022-11-13T16:34:45;5.27;;;4.87;;
5117;SDS011;2578;51.622;7.046;2022-11-13T16:37:12;5.10;;;4.70;;
5117;SDS011;2578;51.622;7.046;2022-11-13T16:39:38;5.30;;;4.90;;
5117;SDS011;2578;51.622;7.046;2022-11-13T16:42:04;5.70;;;5.30;;
5117;SDS011;2578;51.622;7.046;2022-11-13T16:44:29;5.10;;;4.70;;
5117;SDS011;2578;51.622;7.046;2022-11-13T16:46:55;4.90;;;4.50;;
5117;SDS011;2578;51.622;7.046;2022-11-13T16:49:20;4.50;;;4.10;;